sensor_id;sensor_type;location;lat;lon;timestamp;temperature;humidity
22996;DHT22;11664;49.774;8.650;2022-09-30T00:02:21;8.40;99.90
22996;DHT22;11664;49.774;8.650;2022-09-30T00:04:47;8.40;99.90
22996;DHT22;11664;49.774;8.650;2022-09-30T00:07:12;8.50;99.90
22996;DHT22;11664;49.774;8.650;2022-09-30T00:09:38;8.50;99.90
22996;DHT22;11664;49.774;8.650;2022-09-30T00:12:04;8.50;99.90
22996;DHT22;11664;49.774;8.650;2022-09-30T00:14:29;8.60;99.90
22996;DHT22;11664;49.774;8.650;2022-09-30T00:16:55;8.60;99.90
22996;DHT22;11664;49.774;8.650;2022-09-30T00:19:20;8.70;99.90
22996;DHT22;11664;49.774;8.650;2022-09-30T00:21:46;8.70;99.90
22996;DHT22;11664;49.774;8.650;2022-09-30T00:24:12;8.70;99.90
22996;DHT22;11664;49.774;8.650;2022-09-30T00:26:37;8.70;99.90
22996;DHT22;11664;49.774;8.650;2022-09-30T00:29:04;8.70;99.90
22996;DHT22;11664;49.774;8.650;2022-09-30T00:31:32;8.70;99.90
22996;DHT22;11664;49.774;8.650;2022-09-30T00:33:58;8.80;99.90
22996;DHT22;11664;49.774;8.650;2022-09-30T00:39:00;8.80;99.90
22996;DHT22;11664;49.774;8.650;2022-09-30T00:41:26;8.80;99.90
22996;DHT22;11664;49.774;8.650;2022-09-30T00:43:52;8.80;99.90
22996;DHT22;11664;49.774;8.650;2022-09-30T00:46:35;8.90;99.90
22996;DHT22;11664;49.774;8.650;2022-09-30T00:49:02;8.90;99.90
22996;DHT22;11664;49.774;8.650;2022-09-30T00:51:36;8.90;99.90
22996;DHT22;11664;49.774;8.650;2022-09-30T00:54:08;9.00;99.90
22996;DHT22;11664;49.774;8.650;2022-09-30T00:56:40;8.90;99.90
22996;DHT22;11664;49.774;8.650;2022-09-30T00:59:07;8.90;99.90
22996;DHT22;11664;49.774;8.650;2022-09-30T01:01:37;8.90;99.90
22996;DHT22;11664;49.774;8.650;2022-09-30T01:04:10;9.00;99.90
22996;DHT22;11664;49.774;8.650;2022-09-30T01:06:37;9.00;99.90
22996;DHT22;11664;49.774;8.650;2022-09-30T01:09:03;9.00;99.90
22996;DHT22;11664;49.774;8.650;2022-09-30T01:11:29;9.10;99.90
22996;DHT22;11664;49.774;8.650;2022-09-30T01:13:58;9.10;99.90
22996;DHT22;11664;49.774;8.650;2022-09-30T01:16:43;9.20;99.90
22996;DHT22;11664;49.774;8.650;2022-09-30T01:21:48;9.20;99.90
22996;DHT22;11664;49.774;8.650;2022-09-30T01:27:11;9.10;99.90
22996;DHT22;11664;49.774;8.650;2022-09-30T01:30:05;9.10;99.90
22996;DHT22;11664;49.774;8.650;2022-09-30T01:40:52;9.20;99.90
22996;DHT22;11664;49.774;8.650;2022-09-30T01:46:31;9.10;99.90
22996;DHT22;11664;49.774;8.650;2022-09-30T01:49:30;9.10;99.90
22996;DHT22;11664;49.774;8.650;2022-09-30T01:52:15;9.10;99.90
22996;DHT22;11664;49.774;8.650;2022-09-30T01:54:47;9.20;99.90
22996;DHT22;11664;49.774;8.650;2022-09-30T02:00:09;9.20;99.90
22996;DHT22;11664;49.774;8.650;2022-09-30T02:05:30;9.20;99.90
22996;DHT22;11664;49.774;8.650;2022-09-30T02:10:45;9.20;99.90
22996;DHT22;11664;49.774;8.650;2022-09-30T02:13:16;9.20;99.90
22996;DHT22;11664;49.774;8.650;2022-09-30T02:15:49;9.20;99.90
22996;DHT22;11664;49.774;8.650;2022-09-30T02:18:25;9.20;99.90
22996;DHT22;11664;49.774;8.650;2022-09-30T02:20:59;9.20;99.90
22996;DHT22;11664;49.774;8.650;2022-09-30T02:23:30;9.20;99.90
22996;DHT22;11664;49.774;8.650;2022-09-30T02:26:07;9.20;99.90
22996;DHT22;11664;49.774;8.650;2022-09-30T02:28:37;9.20;99.90
22996;DHT22;11664;49.774;8.650;2022-09-30T02:31:07;9.20;99.90
22996;DHT22;11664;49.774;8.650;2022-09-30T02:33:40;9.20;99.90
22996;DHT22;11664;49.774;8.650;2022-09-30T02:36:31;9.20;99.90
22996;DHT22;11664;49.774;8.650;2022-09-30T02:39:10;9.20;99.90
22996;DHT22;11664;49.774;8.650;2022-09-30T02:41:46;9.20;99.90
22996;DHT22;11664;49.774;8.650;2022-09-30T02:44:14;9.10;99.90
22996;DHT22;11664;49.774;8.650;2022-09-30T02:47:03;9.10;99.90
22996;DHT22;11664;49.774;8.650;2022-09-30T02:49:44;9.00;99.90
22996;DHT22;11664;49.774;8.650;2022-09-30T02:52:57;9.00;99.90
22996;DHT22;11664;49.774;8.650;2022-09-30T02:55:02;9.00;99.90
22996;DHT22;11664;49.774;8.650;2022-09-30T02:57:37;8.90;99.90
22996;DHT22;11664;49.774;8.650;2022-09-30T03:00:06;8.90;99.90
22996;DHT22;11664;49.774;8.650;2022-09-30T03:02:33;8.90;99.90
22996;DHT22;11664;49.774;8.650;2022-09-30T03:04:59;8.80;99.90
22996;DHT22;11664;49.774;8.650;2022-09-30T03:07:25;8.80;99.90
22996;DHT22;11664;49.774;8.650;2022-09-30T03:09:55;8.70;99.90
22996;DHT22;11664;49.774;8.650;2022-09-30T03:12:45;8.70;99.90
22996;DHT22;11664;49.774;8.650;2022-09-30T03:15:44;8.60;99.90
22996;DHT22;11664;49.774;8.650;2022-09-30T03:21:33;8.40;99.90
22996;DHT22;11664;49.774;8.650;2022-09-30T03:24:21;8.30;99.90
22996;DHT22;11664;49.774;8.650;2022-09-30T03:27:28;8.30;99.90
22996;DHT22;11664;49.774;8.650;2022-09-30T03:30:04;8.20;99.90
22996;DHT22;11664;49.774;8.650;2022-09-30T03:35:52;8.00;99.90
22996;DHT22;11664;49.774;8.650;2022-09-30T03:38:43;7.90;99.90
22996;DHT22;11664;49.774;8.650;2022-09-30T03:43:47;7.80;99.90
22996;DHT22;11664;49.774;8.650;2022-09-30T03:48:56;7.60;99.90
22996;DHT22;11664;49.774;8.650;2022-09-30T03:51:23;7.60;99.90
22996;DHT22;11664;49.774;8.650;2022-09-30T03:53:49;7.50;99.90
22996;DHT22;11664;49.774;8.650;2022-09-30T03:56:26;7.50;99.90
22996;DHT22;11664;49.774;8.650;2022-09-30T03:58:53;7.40;99.90
22996;DHT22;11664;49.774;8.650;2022-09-30T04:01:19;7.30;99.90
22996;DHT22;11664;49.774;8.650;2022-09-30T04:03:47;7.30;99.90
22996;DHT22;11664;49.774;8.650;2022-09-30T04:06:13;7.20;99.90
22996;DHT22;11664;49.774;8.650;2022-09-30T04:08:39;7.20;99.90
22996;DHT22;11664;49.774;8.650;2022-09-30T04:11:04;7.10;99.90
22996;DHT22;11664;49.774;8.650;2022-09-30T04:13:30;7.00;99.90
22996;DHT22;11664;49.774;8.650;2022-09-30T04:15:56;7.00;99.90
22996;DHT22;11664;49.774;8.650;2022-09-30T04:18:21;6.90;99.90
22996;DHT22;11664;49.774;8.650;2022-09-30T04:20:47;6.90;99.90
22996;DHT22;11664;49.774;8.650;2022-09-30T04:23:13;6.90;99.90
22996;DHT22;11664;49.774;8.650;2022-09-30T04:25:38;6.80;99.90
22996;DHT22;11664;49.774;8.650;2022-09-30T04:28:04;6.80;99.90
22996;DHT22;11664;49.774;8.650;2022-09-30T04:30:30;6.80;99.90
22996;DHT22;11664;49.774;8.650;2022-09-30T04:32:56;6.70;99.90
22996;DHT22;11664;49.774;8.650;2022-09-30T04:35:22;6.70;99.90
22996;DHT22;11664;49.774;8.650;2022-09-30T04:37:48;6.60;99.90
22996;DHT22;11664;49.774;8.650;2022-09-30T04:40:15;6.70;99.90
22996;DHT22;11664;49.774;8.650;2022-09-30T04:42:41;6.60;99.90
22996;DHT22;11664;49.774;8.650;2022-09-30T04:45:09;6.60;99.90
22996;DHT22;11664;49.774;8.650;2022-09-30T04:47:35;6.50;99.90
22996;DHT22;11664;49.774;8.650;2022-09-30T04:50:00;6.40;99.90
22996;DHT22;11664;49.774;8.650;2022-09-30T04:52:26;6.30;99.90
22996;DHT22;11664;49.774;8.650;2022-09-30T04:54:51;6.20;99.90
22996;DHT22;11664;49.774;8.650;2022-09-30T04:57:18;6.20;99.90
22996;DHT22;11664;49.774;8.650;2022-09-30T04:59:44;6.10;99.90
22996;DHT22;11664;49.774;8.650;2022-09-30T05:02:10;6.00;99.90
22996;DHT22;11664;49.774;8.650;2022-09-30T05:04:37;6.00;99.90
22996;DHT22;11664;49.774;8.650;2022-09-30T05:07:03;6.00;99.90
22996;DHT22;11664;49.774;8.650;2022-09-30T05:09:33;6.00;99.90
22996;DHT22;11664;49.774;8.650;2022-09-30T05:11:59;6.10;99.90
22996;DHT22;11664;49.774;8.650;2022-09-30T05:14:26;6.10;99.90
22996;DHT22;11664;49.774;8.650;2022-09-30T05:16:52;6.10;99.90
22996;DHT22;11664;49.774;8.650;2022-09-30T05:19:17;6.10;99.90
22996;DHT22;11664;49.774;8.650;2022-09-30T05:21:43;6.10;99.90
22996;DHT22;11664;49.774;8.650;2022-09-30T05:24:09;6.20;99.90
22996;DHT22;11664;49.774;8.650;2022-09-30T05:26:35;6.10;99.90
22996;DHT22;11664;49.774;8.650;2022-09-30T05:29:00;6.10;99.90
22996;DHT22;11664;49.774;8.650;2022-09-30T05:31:26;6.00;99.90
22996;DHT22;11664;49.774;8.650;2022-09-30T05:33:51;6.00;99.90
22996;DHT22;11664;49.774;8.650;2022-09-30T05:36:19;6.00;99.90
22996;DHT22;11664;49.774;8.650;2022-09-30T05:38:45;6.00;99.90
22996;DHT22;11664;49.774;8.650;2022-09-30T05:41:12;6.00;99.90
22996;DHT22;11664;49.774;8.650;2022-09-30T05:43:39;6.00;99.90
22996;DHT22;11664;49.774;8.650;2022-09-30T05:46:05;5.80;99.90
22996;DHT22;11664;49.774;8.650;2022-09-30T05:48:31;5.90;99.90
22996;DHT22;11664;49.774;8.650;2022-09-30T05:50:57;5.80;99.90
22996;DHT22;11664;49.774;8.650;2022-09-30T05:53:25;5.80;99.90
22996;DHT22;11664;49.774;8.650;2022-09-30T05:55:51;5.80;99.90
22996;DHT22;11664;49.774;8.650;2022-09-30T05:58:18;5.70;99.90
22996;DHT22;11664;49.774;8.650;2022-09-30T06:00:45;5.60;99.90
22996;DHT22;11664;49.774;8.650;2022-09-30T06:03:11;5.70;99.90
22996;DHT22;11664;49.774;8.650;2022-09-30T06:05:37;5.80;99.90
22996;DHT22;11664;49.774;8.650;2022-09-30T06:08:03;5.80;99.90
22996;DHT22;11664;49.774;8.650;2022-09-30T06:10:29;5.80;99.90
22996;DHT22;11664;49.774;8.650;2022-09-30T06:12:55;5.90;99.90
22996;DHT22;11664;49.774;8.650;2022-09-30T06:15:21;6.00;99.90
22996;DHT22;11664;49.774;8.650;2022-09-30T06:17:52;6.10;99.90
22996;DHT22;11664;49.774;8.650;2022-09-30T06:20:17;6.20;99.90
22996;DHT22;11664;49.774;8.650;2022-09-30T06:22:43;6.20;99.90
22996;DHT22;11664;49.774;8.650;2022-09-30T06:25:09;6.30;99.90
22996;DHT22;11664;49.774;8.650;2022-09-30T06:27:35;6.30;99.90
22996;DHT22;11664;49.774;8.650;2022-09-30T06:30:05;6.40;99.90
22996;DHT22;11664;49.774;8.650;2022-09-30T06:32:31;6.40;99.90
22996;DHT22;11664;49.774;8.650;2022-09-30T06:34:57;6.40;99.90
22996;DHT22;11664;49.774;8.650;2022-09-30T06:37:23;6.40;99.90
22996;DHT22;11664;49.774;8.650;2022-09-30T06:39:49;6.50;99.90
22996;DHT22;11664;49.774;8.650;2022-09-30T06:42:15;6.70;99.90
22996;DHT22;11664;49.774;8.650;2022-09-30T06:44:42;6.70;99.90
22996;DHT22;11664;49.774;8.650;2022-09-30T06:47:08;6.80;99.90
22996;DHT22;11664;49.774;8.650;2022-09-30T06:49:33;6.90;99.90
22996;DHT22;11664;49.774;8.650;2022-09-30T06:51:59;6.90;99.90
22996;DHT22;11664;49.774;8.650;2022-09-30T06:54:26;7.00;99.90
22996;DHT22;11664;49.774;8.650;2022-09-30T06:56:53;7.00;99.90
22996;DHT22;11664;49.774;8.650;2022-09-30T06:59:19;7.00;99.90
22996;DHT22;11664;49.774;8.650;2022-09-30T07:01:45;7.10;99.90
22996;DHT22;11664;49.774;8.650;2022-09-30T07:04:11;7.20;99.90
22996;DHT22;11664;49.774;8.650;2022-09-30T07:06:37;7.30;99.90
22996;DHT22;11664;49.774;8.650;2022-09-30T07:09:04;7.30;99.90
22996;DHT22;11664;49.774;8.650;2022-09-30T07:11:29;7.40;99.90
22996;DHT22;11664;49.774;8.650;2022-09-30T07:13:55;7.40;99.90
22996;DHT22;11664;49.774;8.650;2022-09-30T07:16:21;7.30;99.90
22996;DHT22;11664;49.774;8.650;2022-09-30T07:18:50;7.40;99.90
22996;DHT22;11664;49.774;8.650;2022-09-30T07:21:16;7.50;99.90
22996;DHT22;11664;49.774;8.650;2022-09-30T07:23:45;7.30;99.90
22996;DHT22;11664;49.774;8.650;2022-09-30T07:26:20;7.40;99.90
22996;DHT22;11664;49.774;8.650;2022-09-30T07:28:46;7.50;99.90
22996;DHT22;11664;49.774;8.650;2022-09-30T07:31:15;7.50;99.90
22996;DHT22;11664;49.774;8.650;2022-09-30T07:33:42;7.50;99.90
22996;DHT22;11664;49.774;8.650;2022-09-30T07:36:08;7.50;99.90
22996;DHT22;11664;49.774;8.650;2022-09-30T07:38:37;7.30;99.90
22996;DHT22;11664;49.774;8.650;2022-09-30T07:41:08;7.40;99.90
22996;DHT22;11664;49.774;8.650;2022-09-30T07:43:34;7.50;99.90
22996;DHT22;11664;49.774;8.650;2022-09-30T07:46:11;7.70;99.90
22996;DHT22;11664;49.774;8.650;2022-09-30T07:48:39;7.70;99.90
22996;DHT22;11664;49.774;8.650;2022-09-30T07:51:14;7.80;99.90
22996;DHT22;11664;49.774;8.650;2022-09-30T07:53:42;7.90;99.90
22996;DHT22;11664;49.774;8.650;2022-09-30T07:56:08;7.90;99.90
22996;DHT22;11664;49.774;8.650;2022-09-30T07:58:34;7.90;99.90
22996;DHT22;11664;49.774;8.650;2022-09-30T08:01:00;7.90;99.90
22996;DHT22;11664;49.774;8.650;2022-09-30T08:03:26;7.90;99.90
22996;DHT22;11664;49.774;8.650;2022-09-30T08:05:52;8.00;99.90
22996;DHT22;11664;49.774;8.650;2022-09-30T08:08:18;8.10;99.90
22996;DHT22;11664;49.774;8.650;2022-09-30T08:10:43;8.20;99.90
22996;DHT22;11664;49.774;8.650;2022-09-30T08:13:09;8.30;99.90
22996;DHT22;11664;49.774;8.650;2022-09-30T08:15:38;8.40;99.90
22996;DHT22;11664;49.774;8.650;2022-09-30T08:18:04;8.50;99.90
22996;DHT22;11664;49.774;8.650;2022-09-30T08:20:30;8.40;99.90
22996;DHT22;11664;49.774;8.650;2022-09-30T08:22:56;8.60;99.90
22996;DHT22;11664;49.774;8.650;2022-09-30T08:25:23;8.60;99.90
22996;DHT22;11664;49.774;8.650;2022-09-30T08:27:48;8.70;99.90
22996;DHT22;11664;49.774;8.650;2022-09-30T08:30:14;8.80;99.90
22996;DHT22;11664;49.774;8.650;2022-09-30T08:32:40;8.90;99.90
22996;DHT22;11664;49.774;8.650;2022-09-30T08:35:06;9.00;99.90
22996;DHT22;11664;49.774;8.650;2022-09-30T08:37:32;9.10;99.90
22996;DHT22;11664;49.774;8.650;2022-09-30T08:39:57;9.20;99.90
22996;DHT22;11664;49.774;8.650;2022-09-30T08:42:47;9.30;99.90
22996;DHT22;11664;49.774;8.650;2022-09-30T08:46:10;9.40;99.90
22996;DHT22;11664;49.774;8.650;2022-09-30T08:48:28;9.50;99.90
22996;DHT22;11664;49.774;8.650;2022-09-30T08:51:07;9.60;99.90
22996;DHT22;11664;49.774;8.650;2022-09-30T08:53:41;9.80;99.90
22996;DHT22;11664;49.774;8.650;2022-09-30T08:56:07;9.90;99.90
22996;DHT22;11664;49.774;8.650;2022-09-30T08:58:40;10.00;99.90
22996;DHT22;11664;49.774;8.650;2022-09-30T09:01:25;10.00;99.90
22996;DHT22;11664;49.774;8.650;2022-09-30T09:03:53;10.10;99.90
22996;DHT22;11664;49.774;8.650;2022-09-30T09:12:01;10.30;99.90
22996;DHT22;11664;49.774;8.650;2022-09-30T09:17:30;10.50;99.90
22996;DHT22;11664;49.774;8.650;2022-09-30T09:20:15;10.70;99.90
22996;DHT22;11664;49.774;8.650;2022-09-30T09:22:42;10.90;99.90
22996;DHT22;11664;49.774;8.650;2022-09-30T09:25:13;11.00;99.90
22996;DHT22;11664;49.774;8.650;2022-09-30T09:30:15;11.00;99.90
22996;DHT22;11664;49.774;8.650;2022-09-30T09:32:42;11.20;99.90
22996;DHT22;11664;49.774;8.650;2022-09-30T17:24:54;13.10;99.90
22996;DHT22;11664;49.774;8.650;2022-09-30T17:27:20;12.90;99.90
22996;DHT22;11664;49.774;8.650;2022-09-30T17:29:45;12.80;99.90
22996;DHT22;11664;49.774;8.650;2022-09-30T17:32:11;12.80;99.90
22996;DHT22;11664;49.774;8.650;2022-09-30T17:34:36;12.80;99.90
22996;DHT22;11664;49.774;8.650;2022-09-30T17:37:02;12.70;99.90
22996;DHT22;11664;49.774;8.650;2022-09-30T17:39:27;12.70;99.90
22996;DHT22;11664;49.774;8.650;2022-09-30T17:41:53;12.60;99.90
22996;DHT22;11664;49.774;8.650;2022-09-30T17:44:37;12.60;99.90
22996;DHT22;11664;49.774;8.650;2022-09-30T17:47:04;12.60;99.90
22996;DHT22;11664;49.774;8.650;2022-09-30T17:49:34;12.50;99.90
22996;DHT22;11664;49.774;8.650;2022-09-30T17:52:00;12.40;99.90
22996;DHT22;11664;49.774;8.650;2022-09-30T17:54:26;12.40;99.90
22996;DHT22;11664;49.774;8.650;2022-09-30T17:56:52;12.30;99.90
22996;DHT22;11664;49.774;8.650;2022-09-30T17:59:18;12.30;99.90
22996;DHT22;11664;49.774;8.650;2022-09-30T18:01:48;12.20;99.90
22996;DHT22;11664;49.774;8.650;2022-09-30T18:04:15;12.20;99.90
22996;DHT22;11664;49.774;8.650;2022-09-30T18:06:41;12.10;99.90
22996;DHT22;11664;49.774;8.650;2022-09-30T18:09:07;12.10;99.90
22996;DHT22;11664;49.774;8.650;2022-09-30T18:11:33;12.10;99.90
22996;DHT22;11664;49.774;8.650;2022-09-30T18:13:59;12.10;99.90
22996;DHT22;11664;49.774;8.650;2022-09-30T18:16:29;12.10;99.90
22996;DHT22;11664;49.774;8.650;2022-09-30T18:18:57;12.10;99.90
22996;DHT22;11664;49.774;8.650;2022-09-30T18:21:23;12.00;99.90
22996;DHT22;11664;49.774;8.650;2022-09-30T18:23:52;12.00;99.90
22996;DHT22;11664;49.774;8.650;2022-09-30T18:26:19;12.00;99.90
22996;DHT22;11664;49.774;8.650;2022-09-30T18:28:44;12.00;99.90
22996;DHT22;11664;49.774;8.650;2022-09-30T18:31:10;12.00;99.90
22996;DHT22;11664;49.774;8.650;2022-09-30T18:33:42;12.00;99.90
22996;DHT22;11664;49.774;8.650;2022-09-30T18:36:09;12.00;99.90
22996;DHT22;11664;49.774;8.650;2022-09-30T18:38:35;12.00;99.90
22996;DHT22;11664;49.774;8.650;2022-09-30T18:41:04;12.00;99.90
22996;DHT22;11664;49.774;8.650;2022-09-30T18:43:29;11.90;99.90
22996;DHT22;11664;49.774;8.650;2022-09-30T18:45:56;11.90;99.90
22996;DHT22;11664;49.774;8.650;2022-09-30T18:48:23;11.90;99.90
22996;DHT22;11664;49.774;8.650;2022-09-30T18:50:49;11.80;99.90
22996;DHT22;11664;49.774;8.650;2022-09-30T18:53:18;11.90;99.90
22996;DHT22;11664;49.774;8.650;2022-09-30T18:55:48;12.00;99.90
22996;DHT22;11664;49.774;8.650;2022-09-30T18:58:14;11.90;99.90
22996;DHT22;11664;49.774;8.650;2022-09-30T19:00:43;11.90;99.90
22996;DHT22;11664;49.774;8.650;2022-09-30T19:03:08;11.90;99.90
22996;DHT22;11664;49.774;8.650;2022-09-30T19:05:38;11.90;99.90
22996;DHT22;11664;49.774;8.650;2022-09-30T19:08:04;11.90;99.90
22996;DHT22;11664;49.774;8.650;2022-09-30T19:10:29;12.00;99.90
22996;DHT22;11664;49.774;8.650;2022-09-30T19:12:55;12.10;99.90
22996;DHT22;11664;49.774;8.650;2022-09-30T19:15:21;12.10;99.90
22996;DHT22;11664;49.774;8.650;2022-09-30T19:17:47;12.10;99.90
22996;DHT22;11664;49.774;8.650;2022-09-30T19:20:15;12.00;99.90
22996;DHT22;11664;49.774;8.650;2022-09-30T19:22:42;12.00;99.90
22996;DHT22;11664;49.774;8.650;2022-09-30T19:25:09;12.00;99.90
22996;DHT22;11664;49.774;8.650;2022-09-30T19:27:36;12.00;99.90
22996;DHT22;11664;49.774;8.650;2022-09-30T19:30:04;12.00;99.90
22996;DHT22;11664;49.774;8.650;2022-09-30T19:32:31;12.10;99.90
22996;DHT22;11664;49.774;8.650;2022-09-30T19:34:59;12.00;99.90
22996;DHT22;11664;49.774;8.650;2022-09-30T19:37:25;12.00;99.90
22996;DHT22;11664;49.774;8.650;2022-09-30T19:39:51;12.00;99.90
22996;DHT22;11664;49.774;8.650;2022-09-30T19:42:16;11.90;99.90
22996;DHT22;11664;49.774;8.650;2022-09-30T19:44:42;11.80;99.90
22996;DHT22;11664;49.774;8.650;2022-09-30T19:47:08;11.70;99.90
22996;DHT22;11664;49.774;8.650;2022-09-30T19:49:35;11.70;99.90
22996;DHT22;11664;49.774;8.650;2022-09-30T19:52:00;11.60;99.90
22996;DHT22;11664;49.774;8.650;2022-09-30T19:54:28;11.50;99.90
22996;DHT22;11664;49.774;8.650;2022-09-30T19:56:54;11.50;99.90
22996;DHT22;11664;49.774;8.650;2022-09-30T19:59:20;11.40;99.90
22996;DHT22;11664;49.774;8.650;2022-09-30T20:01:45;11.40;99.90
22996;DHT22;11664;49.774;8.650;2022-09-30T20:04:11;11.40;99.90
22996;DHT22;11664;49.774;8.650;2022-09-30T20:06:37;11.30;99.90
22996;DHT22;11664;49.774;8.650;2022-09-30T20:09:04;11.30;99.90
22996;DHT22;11664;49.774;8.650;2022-09-30T20:11:32;11.20;99.90
22996;DHT22;11664;49.774;8.650;2022-09-30T20:14:00;11.20;99.90
22996;DHT22;11664;49.774;8.650;2022-09-30T20:16:45;11.30;99.90
22996;DHT22;11664;49.774;8.650;2022-09-30T20:19:13;11.30;99.90
22996;DHT22;11664;49.774;8.650;2022-09-30T20:21:39;11.30;99.90
22996;DHT22;11664;49.774;8.650;2022-09-30T20:24:07;11.30;99.90
22996;DHT22;11664;49.774;8.650;2022-09-30T20:26:34;11.20;99.90
22996;DHT22;11664;49.774;8.650;2022-09-30T20:29:00;11.20;99.90
22996;DHT22;11664;49.774;8.650;2022-09-30T20:31:26;11.10;99.90
22996;DHT22;11664;49.774;8.650;2022-09-30T20:33:57;11.10;99.90
22996;DHT22;11664;49.774;8.650;2022-09-30T20:36:23;11.10;99.90
22996;DHT22;11664;49.774;8.650;2022-09-30T20:38:53;11.10;99.90
22996;DHT22;11664;49.774;8.650;2022-09-30T20:41:22;11.10;99.90
22996;DHT22;11664;49.774;8.650;2022-09-30T20:43:48;11.10;99.90
22996;DHT22;11664;49.774;8.650;2022-09-30T20:46:18;11.10;99.90
22996;DHT22;11664;49.774;8.650;2022-09-30T20:48:44;11.20;99.90
22996;DHT22;11664;49.774;8.650;2022-09-30T20:51:12;11.10;99.90
22996;DHT22;11664;49.774;8.650;2022-09-30T20:53:38;11.20;99.90
22996;DHT22;11664;49.774;8.650;2022-09-30T20:56:09;11.10;99.90
22996;DHT22;11664;49.774;8.650;2022-09-30T20:58:35;11.10;99.90
22996;DHT22;11664;49.774;8.650;2022-09-30T21:01:07;11.10;99.90
22996;DHT22;11664;49.774;8.650;2022-09-30T21:03:35;10.90;99.90
22996;DHT22;11664;49.774;8.650;2022-09-30T21:06:05;10.80;99.90
22996;DHT22;11664;49.774;8.650;2022-09-30T21:08:35;10.80;99.90
22996;DHT22;11664;49.774;8.650;2022-09-30T21:11:06;10.70;99.90
22996;DHT22;11664;49.774;8.650;2022-09-30T21:13:31;10.60;99.90
22996;DHT22;11664;49.774;8.650;2022-09-30T21:16:02;10.60;99.90
22996;DHT22;11664;49.774;8.650;2022-09-30T21:18:29;10.50;99.90
22996;DHT22;11664;49.774;8.650;2022-09-30T21:21:00;10.50;99.90
22996;DHT22;11664;49.774;8.650;2022-09-30T21:23:27;10.50;99.90
22996;DHT22;11664;49.774;8.650;2022-09-30T21:26:00;10.60;99.90
22996;DHT22;11664;49.774;8.650;2022-09-30T21:28:31;10.60;99.90
22996;DHT22;11664;49.774;8.650;2022-09-30T21:30:58;10.60;99.90
22996;DHT22;11664;49.774;8.650;2022-09-30T21:33:27;10.60;99.90
22996;DHT22;11664;49.774;8.650;2022-09-30T21:36:01;10.60;99.90
22996;DHT22;11664;49.774;8.650;2022-09-30T21:38:28;10.60;99.90
22996;DHT22;11664;49.774;8.650;2022-09-30T21:41:01;10.70;99.90
22996;DHT22;11664;49.774;8.650;2022-09-30T21:43:29;10.80;99.90
22996;DHT22;11664;49.774;8.650;2022-09-30T21:45:59;10.70;99.90
22996;DHT22;11664;49.774;8.650;2022-09-30T21:48:25;10.80;99.90
22996;DHT22;11664;49.774;8.650;2022-09-30T21:50:51;10.80;99.90
22996;DHT22;11664;49.774;8.650;2022-09-30T21:53:16;10.90;99.90
22996;DHT22;11664;49.774;8.650;2022-09-30T21:55:42;10.80;99.90
22996;DHT22;11664;49.774;8.650;2022-09-30T21:58:09;10.70;99.90
22996;DHT22;11664;49.774;8.650;2022-09-30T22:00:35;10.70;99.90
22996;DHT22;11664;49.774;8.650;2022-09-30T22:03:00;10.60;99.90
22996;DHT22;11664;49.774;8.650;2022-09-30T22:05:26;10.50;99.90
22996;DHT22;11664;49.774;8.650;2022-09-30T22:07:51;10.50;99.90
22996;DHT22;11664;49.774;8.650;2022-09-30T22:10:17;10.50;99.90
22996;DHT22;11664;49.774;8.650;2022-09-30T22:12:42;10.40;99.90
22996;DHT22;11664;49.774;8.650;2022-09-30T22:15:08;10.40;99.90
22996;DHT22;11664;49.774;8.650;2022-09-30T22:17:34;10.40;99.90
22996;DHT22;11664;49.774;8.650;2022-09-30T22:20:00;10.50;99.90
22996;DHT22;11664;49.774;8.650;2022-09-30T22:22:25;10.50;99.90
22996;DHT22;11664;49.774;8.650;2022-09-30T22:24:51;10.60;99.90
22996;DHT22;11664;49.774;8.650;2022-09-30T22:27:17;10.60;99.90
22996;DHT22;11664;49.774;8.650;2022-09-30T22:29:43;10.60;99.90
22996;DHT22;11664;49.774;8.650;2022-09-30T22:32:08;10.60;99.90
22996;DHT22;11664;49.774;8.650;2022-09-30T22:34:34;10.70;99.90
22996;DHT22;11664;49.774;8.650;2022-09-30T22:37:18;10.70;99.90
22996;DHT22;11664;49.774;8.650;2022-09-30T22:40:02;10.70;99.90
22996;DHT22;11664;49.774;8.650;2022-09-30T22:42:28;10.70;99.90
22996;DHT22;11664;49.774;8.650;2022-09-30T22:44:53;10.60;99.90
22996;DHT22;11664;49.774;8.650;2022-09-30T22:47:19;10.60;99.90
22996;DHT22;11664;49.774;8.650;2022-09-30T22:49:44;10.60;99.90
22996;DHT22;11664;49.774;8.650;2022-09-30T22:52:12;10.70;99.90
22996;DHT22;11664;49.774;8.650;2022-09-30T22:54:38;10.60;99.90
22996;DHT22;11664;49.774;8.650;2022-09-30T22:57:03;10.60;99.90
22996;DHT22;11664;49.774;8.650;2022-09-30T22:59:29;10.60;99.90
22996;DHT22;11664;49.774;8.650;2022-09-30T23:01:56;10.70;99.90
22996;DHT22;11664;49.774;8.650;2022-09-30T23:04:24;10.60;99.90
22996;DHT22;11664;49.774;8.650;2022-09-30T23:06:51;10.60;99.90
22996;DHT22;11664;49.774;8.650;2022-09-30T23:09:17;10.60;99.90
22996;DHT22;11664;49.774;8.650;2022-09-30T23:11:45;10.70;99.90
22996;DHT22;11664;49.774;8.650;2022-09-30T23:14:11;10.60;99.90
22996;DHT22;11664;49.774;8.650;2022-09-30T23:16:36;10.70;99.90
22996;DHT22;11664;49.774;8.650;2022-09-30T23:19:02;10.80;99.90
22996;DHT22;11664;49.774;8.650;2022-09-30T23:21:28;10.80;99.90
22996;DHT22;11664;49.774;8.650;2022-09-30T23:23:53;10.90;99.90
22996;DHT22;11664;49.774;8.650;2022-09-30T23:26:22;10.90;99.90
22996;DHT22;11664;49.774;8.650;2022-09-30T23:28:50;10.90;99.90
22996;DHT22;11664;49.774;8.650;2022-09-30T23:31:17;10.90;99.90
22996;DHT22;11664;49.774;8.650;2022-09-30T23:33:53;10.90;99.90
22996;DHT22;11664;49.774;8.650;2022-09-30T23:36:22;11.00;99.90
22996;DHT22;11664;49.774;8.650;2022-09-30T23:38:50;11.10;99.90
22996;DHT22;11664;49.774;8.650;2022-09-30T23:41:16;11.10;99.90
22996;DHT22;11664;49.774;8.650;2022-09-30T23:43:41;11.10;99.90
22996;DHT22;11664;49.774;8.650;2022-09-30T23:46:13;11.00;99.90
22996;DHT22;11664;49.774;8.650;2022-09-30T23:48:39;11.00;99.90
22996;DHT22;11664;49.774;8.650;2022-09-30T23:51:06;11.00;99.90
22996;DHT22;11664;49.774;8.650;2022-09-30T23:53:33;11.00;99.90
22996;DHT22;11664;49.774;8.650;2022-09-30T23:56:01;11.00;99.90
22996;DHT22;11664;49.774;8.650;2022-09-30T23:58:31;11.20;99.90
